sensor_id;sensor_type;location;lat;lon;timestamp;temperature;humidity
35244;DHT22;37916;52.160;21.066;2023-04-24T00:06:08;12.00;59.80
35244;DHT22;37916;52.160;21.066;2023-04-24T00:16:09;11.90;60.40
35244;DHT22;37916;52.160;21.066;2023-04-24T00:26:09;11.60;61.30
35244;DHT22;37916;52.160;21.066;2023-04-24T00:36:10;11.40;62.50
35244;DHT22;37916;52.160;21.066;2023-04-24T00:46:11;11.20;64.20
35244;DHT22;37916;52.160;21.066;2023-04-24T00:56:11;11.20;63.60
35244;DHT22;37916;52.160;21.066;2023-04-24T01:06:12;11.20;63.40
35244;DHT22;37916;52.160;21.066;2023-04-24T01:16:14;11.10;64.20
35244;DHT22;37916;52.160;21.066;2023-04-24T01:26:17;11.50;63.00
35244;DHT22;37916;52.160;21.066;2023-04-24T01:36:20;11.50;63.20
35244;DHT22;37916;52.160;21.066;2023-04-24T01:46:21;11.40;63.90
35244;DHT22;37916;52.160;21.066;2023-04-24T01:56:22;11.40;63.20
35244;DHT22;37916;52.160;21.066;2023-04-24T02:06:23;11.30;64.20
35244;DHT22;37916;52.160;21.066;2023-04-24T02:16:24;11.20;64.60
35244;DHT22;37916;52.160;21.066;2023-04-24T02:26:25;11.10;65.00
35244;DHT22;37916;52.160;21.066;2023-04-24T02:36:25;10.90;66.10
35244;DHT22;37916;52.160;21.066;2023-04-24T02:46:26;10.80;66.30
35244;DHT22;37916;52.160;21.066;2023-04-24T02:56:26;10.50;66.80
35244;DHT22;37916;52.160;21.066;2023-04-24T03:06:27;10.40;67.40
35244;DHT22;37916;52.160;21.066;2023-04-24T03:16:28;10.10;68.80
35244;DHT22;37916;52.160;21.066;2023-04-24T03:26:28;10.00;69.40
35244;DHT22;37916;52.160;21.066;2023-04-24T03:36:29;9.90;70.10
35244;DHT22;37916;52.160;21.066;2023-04-24T03:46:30;9.90;70.20
35244;DHT22;37916;52.160;21.066;2023-04-24T03:56:31;10.00;69.20
35244;DHT22;37916;52.160;21.066;2023-04-24T04:06:32;9.90;70.40
35244;DHT22;37916;52.160;21.066;2023-04-24T04:16:32;10.10;70.10
35244;DHT22;37916;52.160;21.066;2023-04-24T04:26:35;10.40;68.90
35244;DHT22;37916;52.160;21.066;2023-04-24T04:36:37;10.80;68.40
35244;DHT22;37916;52.160;21.066;2023-04-24T04:46:40;11.10;67.40
35244;DHT22;37916;52.160;21.066;2023-04-24T04:56:41;11.40;66.50
35244;DHT22;37916;52.160;21.066;2023-04-24T05:06:42;12.10;64.00
35244;DHT22;37916;52.160;21.066;2023-04-24T05:16:43;13.10;61.50
35244;DHT22;37916;52.160;21.066;2023-04-24T05:26:43;14.00;59.20
35244;DHT22;37916;52.160;21.066;2023-04-24T05:36:44;14.90;55.90
35244;DHT22;37916;52.160;21.066;2023-04-24T05:46:44;15.30;54.40
35244;DHT22;37916;52.160;21.066;2023-04-24T05:56:45;16.40;53.30
35244;DHT22;37916;52.160;21.066;2023-04-24T06:06:46;17.40;49.60
35244;DHT22;37916;52.160;21.066;2023-04-24T06:16:50;18.10;49.10
35244;DHT22;37916;52.160;21.066;2023-04-24T06:26:51;18.70;46.60
35244;DHT22;37916;52.160;21.066;2023-04-24T06:36:52;19.50;45.50
35244;DHT22;37916;52.160;21.066;2023-04-24T06:46:52;21.40;41.10
35244;DHT22;37916;52.160;21.066;2023-04-24T06:56:53;22.50;40.90
35244;DHT22;37916;52.160;21.066;2023-04-24T07:06:53;21.60;40.50
35244;DHT22;37916;52.160;21.066;2023-04-24T07:16:58;23.80;35.90
35244;DHT22;37916;52.160;21.066;2023-04-24T07:26:58;24.00;37.80
35244;DHT22;37916;52.160;21.066;2023-04-24T07:37:01;25.50;35.50
35244;DHT22;37916;52.160;21.066;2023-04-24T07:47:02;25.50;34.10
35244;DHT22;37916;52.160;21.066;2023-04-24T07:57:02;25.80;33.40
35244;DHT22;37916;52.160;21.066;2023-04-24T08:07:03;26.70;34.10
35244;DHT22;37916;52.160;21.066;2023-04-24T08:17:04;28.20;33.00
35244;DHT22;37916;52.160;21.066;2023-04-24T08:27:04;28.80;31.40
35244;DHT22;37916;52.160;21.066;2023-04-24T08:37:05;28.30;31.00
35244;DHT22;37916;52.160;21.066;2023-04-24T08:47:05;27.40;34.40
35244;DHT22;37916;52.160;21.066;2023-04-24T08:57:07;26.50;33.60
35244;DHT22;37916;52.160;21.066;2023-04-24T09:07:11;26.10;35.60
35244;DHT22;37916;52.160;21.066;2023-04-24T09:17:12;26.20;35.40
35244;DHT22;37916;52.160;21.066;2023-04-24T09:27:13;26.50;34.30
35244;DHT22;37916;52.160;21.066;2023-04-24T09:37:36;23.70;37.50
35244;DHT22;37916;52.160;21.066;2023-04-24T09:47:39;23.60;38.20
35244;DHT22;37916;52.160;21.066;2023-04-24T09:57:52;23.00;35.90
35244;DHT22;37916;52.160;21.066;2023-04-24T10:07:56;22.70;37.90
35244;DHT22;37916;52.160;21.066;2023-04-24T10:17:57;22.40;36.90
35244;DHT22;37916;52.160;21.066;2023-04-24T10:27:59;22.40;37.00
35244;DHT22;37916;52.160;21.066;2023-04-24T10:38:10;22.30;38.10
35244;DHT22;37916;52.160;21.066;2023-04-24T10:48:11;22.20;38.30
35244;DHT22;37916;52.160;21.066;2023-04-24T10:58:15;21.90;36.20
35244;DHT22;37916;52.160;21.066;2023-04-24T11:08:30;22.00;35.90
35244;DHT22;37916;52.160;21.066;2023-04-24T11:18:36;22.10;35.30
35244;DHT22;37916;52.160;21.066;2023-04-24T11:28:37;22.10;33.40
35244;DHT22;37916;52.160;21.066;2023-04-24T11:38:38;22.20;35.00
35244;DHT22;37916;52.160;21.066;2023-04-24T11:48:44;22.50;34.30
35244;DHT22;37916;52.160;21.066;2023-04-24T11:58:45;22.50;33.30
35244;DHT22;37916;52.160;21.066;2023-04-24T12:08:46;22.60;35.70
35244;DHT22;37916;52.160;21.066;2023-04-24T12:18:47;22.60;34.50
35244;DHT22;37916;52.160;21.066;2023-04-24T12:28:48;22.60;35.80
35244;DHT22;37916;52.160;21.066;2023-04-24T12:38:52;22.70;36.00
35244;DHT22;37916;52.160;21.066;2023-04-24T12:48:53;23.00;37.20
35244;DHT22;37916;52.160;21.066;2023-04-24T12:58:53;22.30;37.50
35244;DHT22;37916;52.160;21.066;2023-04-24T13:08:54;21.70;39.00
35244;DHT22;37916;52.160;21.066;2023-04-24T13:18:55;21.40;39.40
35244;DHT22;37916;52.160;21.066;2023-04-24T13:28:56;21.40;38.60
35244;DHT22;37916;52.160;21.066;2023-04-24T13:38:56;21.50;38.70
35244;DHT22;37916;52.160;21.066;2023-04-24T13:48:57;21.60;37.60
35244;DHT22;37916;52.160;21.066;2023-04-24T13:58:58;22.50;37.40
35244;DHT22;37916;52.160;21.066;2023-04-24T14:08:58;22.70;33.50
35244;DHT22;37916;52.160;21.066;2023-04-24T14:18:59;23.40;34.10
35244;DHT22;37916;52.160;21.066;2023-04-24T14:28:59;22.30;34.40
35244;DHT22;37916;52.160;21.066;2023-04-24T14:39:00;22.80;33.80
35244;DHT22;37916;52.160;21.066;2023-04-24T14:49:04;22.80;35.30
35244;DHT22;37916;52.160;21.066;2023-04-24T14:59:08;22.40;37.30
35244;DHT22;37916;52.160;21.066;2023-04-24T15:09:11;21.80;38.10
35244;DHT22;37916;52.160;21.066;2023-04-24T15:19:11;21.20;38.60
35244;DHT22;37916;52.160;21.066;2023-04-24T15:29:12;20.70;40.90
35244;DHT22;37916;52.160;21.066;2023-04-24T15:39:12;20.40;37.40
35244;DHT22;37916;52.160;21.066;2023-04-24T15:49:13;20.30;37.70
35244;DHT22;37916;52.160;21.066;2023-04-24T15:59:14;20.20;37.00
35244;DHT22;37916;52.160;21.066;2023-04-24T16:09:14;20.20;36.40
35244;DHT22;37916;52.160;21.066;2023-04-24T16:19:15;20.30;36.30
35244;DHT22;37916;52.160;21.066;2023-04-24T16:29:18;20.30;37.00
35244;DHT22;37916;52.160;21.066;2023-04-24T16:39:19;20.30;36.60
35244;DHT22;37916;52.160;21.066;2023-04-24T16:49:20;20.20;37.10
35244;DHT22;37916;52.160;21.066;2023-04-24T16:59:22;20.10;37.40
35244;DHT22;37916;52.160;21.066;2023-04-24T17:09:23;19.90;38.00
35244;DHT22;37916;52.160;21.066;2023-04-24T17:19:24;19.60;38.70
35244;DHT22;37916;52.160;21.066;2023-04-24T17:29:27;19.10;40.60
35244;DHT22;37916;52.160;21.066;2023-04-24T17:39:27;18.70;41.50
35244;DHT22;37916;52.160;21.066;2023-04-24T17:49:30;18.50;43.90
35244;DHT22;37916;52.160;21.066;2023-04-24T18:00:12;18.20;44.00
35244;DHT22;37916;52.160;21.066;2023-04-24T18:10:13;18.00;43.70
35244;DHT22;37916;52.160;21.066;2023-04-24T18:20:15;17.60;44.10
35244;DHT22;37916;52.160;21.066;2023-04-24T18:30:15;17.30;45.40
35244;DHT22;37916;52.160;21.066;2023-04-24T18:40:18;16.80;47.00
35244;DHT22;37916;52.160;21.066;2023-04-24T18:50:19;16.60;46.50
35244;DHT22;37916;52.160;21.066;2023-04-24T19:00:20;16.50;45.10
35244;DHT22;37916;52.160;21.066;2023-04-24T19:10:21;16.10;46.60
35244;DHT22;37916;52.160;21.066;2023-04-24T19:20:22;16.00;45.60
35244;DHT22;37916;52.160;21.066;2023-04-24T19:30:22;15.90;45.50
35244;DHT22;37916;52.160;21.066;2023-04-24T19:40:23;15.70;46.10
35244;DHT22;37916;52.160;21.066;2023-04-24T19:50:24;15.50;46.20
35244;DHT22;37916;52.160;21.066;2023-04-24T20:00:48;15.40;47.10
35244;DHT22;37916;52.160;21.066;2023-04-24T20:10:52;15.40;48.00
35244;DHT22;37916;52.160;21.066;2023-04-24T20:20:53;15.00;51.30
35244;DHT22;37916;52.160;21.066;2023-04-24T20:30:57;15.20;48.80
35244;DHT22;37916;52.160;21.066;2023-04-24T20:40:57;15.00;49.30
35244;DHT22;37916;52.160;21.066;2023-04-24T20:50:59;14.80;50.60
35244;DHT22;37916;52.160;21.066;2023-04-24T21:00:59;14.80;51.80
35244;DHT22;37916;52.160;21.066;2023-04-24T21:11:00;14.30;54.30
35244;DHT22;37916;52.160;21.066;2023-04-24T21:21:00;14.20;56.90
35244;DHT22;37916;52.160;21.066;2023-04-24T21:31:02;14.20;58.50
35244;DHT22;37916;52.160;21.066;2023-04-24T21:41:03;14.30;59.00
35244;DHT22;37916;52.160;21.066;2023-04-24T21:51:03;14.20;59.90
35244;DHT22;37916;52.160;21.066;2023-04-24T22:01:04;14.10;60.50
35244;DHT22;37916;52.160;21.066;2023-04-24T22:11:05;13.90;61.70
35244;DHT22;37916;52.160;21.066;2023-04-24T22:21:05;13.90;62.90
35244;DHT22;37916;52.160;21.066;2023-04-24T22:31:06;13.70;65.30
35244;DHT22;37916;52.160;21.066;2023-04-24T22:41:06;13.50;66.70
35244;DHT22;37916;52.160;21.066;2023-04-24T22:51:07;13.40;67.10
35244;DHT22;37916;52.160;21.066;2023-04-24T23:01:08;13.30;66.40
35244;DHT22;37916;52.160;21.066;2023-04-24T23:11:08;13.10;67.80
35244;DHT22;37916;52.160;21.066;2023-04-24T23:21:10;12.90;69.00
35244;DHT22;37916;52.160;21.066;2023-04-24T23:31:11;12.80;70.30
35244;DHT22;37916;52.160;21.066;2023-04-24T23:41:12;12.80;71.80
35244;DHT22;37916;52.160;21.066;2023-04-24T23:51:12;12.90;71.60
